TimeCDT,TemperatureF,Dew PointF,Humidity,Sea Level PressureIn,VisibilityMPH,Wind Direction,Wind SpeedMPH,Gust SpeedMPH,PrecipitationIn,Events,Conditions,WindDirDegrees,DateUTC
12:15 AM,64.8,56.7,75,30.03,10.0,South,5.8,-,N/A,,Clear,170,2013-07-05 05:15:00
12:35 AM,64.6,56.8,76,30.03,10.0,South,4.6,-,N/A,,Clear,180,2013-07-05 05:35:00
12:55 AM,64.4,57.2,77,30.03,10.0,South,4.6,-,N/A,,Clear,180,2013-07-05 05:55:00
1:15 AM,63.9,56.8,78,30.03,10.0,Calm,Calm,-,N/A,,Clear,0,2013-07-05 06:15:00
1:35 AM,63.9,56.8,78,30.03,10.0,Calm,Calm,-,N/A,,Clear,0,2013-07-05 06:35:00
1:55 AM,61.7,56.5,83,30.02,10.0,South,4.6,-,N/A,,Clear,170,2013-07-05 06:55:00
2:15 AM,62.6,57.2,82,30.02,10.0,Calm,Calm,-,N/A,,Clear,0,2013-07-05 07:15:00
2:35 AM,60.8,56.3,85,30.02,10.0,Calm,Calm,-,N/A,,Clear,0,2013-07-05 07:35:00
2:55 AM,59.7,55.8,87,30.02,10.0,Calm,Calm,-,N/A,,Clear,0,2013-07-05 07:55:00
3:15 AM,59.2,55.4,87,30.02,10.0,Calm,Calm,-,N/A,,Clear,0,2013-07-05 08:15:00
3:35 AM,57.6,54.1,88,30.01,10.0,Calm,Calm,-,N/A,,Clear,0,2013-07-05 08:35:00
3:55 AM,59.9,56.1,87,30.02,10.0,Calm,Calm,-,N/A,,Clear,0,2013-07-05 08:55:00
4:15 AM,58.6,54.9,87,30.02,10.0,Calm,Calm,-,N/A,,Clear,0,2013-07-05 09:15:00
4:35 AM,59.0,55.6,88,30.02,10.0,Calm,Calm,-,N/A,,Clear,0,2013-07-05 09:35:00
4:55 AM,59.4,55.9,88,30.02,10.0,Calm,Calm,-,N/A,,Clear,0,2013-07-05 09:55:00
5:15 AM,60.3,57.2,90,30.03,10.0,Calm,Calm,-,N/A,,Clear,0,2013-07-05 10:15:00
5:35 AM,58.8,55.4,88,30.03,10.0,Calm,Calm,-,N/A,,Clear,0,2013-07-05 10:35:00
5:55 AM,58.1,55.0,90,30.03,10.0,Calm,Calm,-,N/A,,Clear,0,2013-07-05 10:55:00
6:15 AM,59.7,56.3,88,30.03,10.0,Calm,Calm,-,N/A,,Clear,0,2013-07-05 11:15:00
6:35 AM,61.7,58.3,89,30.03,10.0,South,3.5,-,N/A,,Clear,190,2013-07-05 11:35:00
6:55 AM,63.9,59.0,84,30.03,10.0,South,4.6,-,N/A,,Clear,190,2013-07-05 11:55:00
7:15 AM,65.8,58.5,77,30.04,10.0,SSW,5.8,-,N/A,,Clear,200,2013-07-05 12:15:00
7:35 AM,67.8,58.3,71,30.04,10.0,SSW,5.8,-,N/A,,Clear,210,2013-07-05 12:35:00
7:55 AM,69.1,58.1,68,30.04,10.0,SSW,5.8,-,N/A,,Clear,210,2013-07-05 12:55:00
8:15 AM,70.0,58.1,66,30.04,10.0,SSW,5.8,-,N/A,,Clear,210,2013-07-05 13:15:00
8:35 AM,71.4,58.6,64,30.05,10.0,SSW,6.9,-,N/A,,Clear,200,2013-07-05 13:35:00
8:55 AM,72.0,58.8,63,30.05,10.0,South,6.9,-,N/A,,Clear,190,2013-07-05 13:55:00
9:15 AM,73.6,59.7,62,30.05,10.0,South,8.1,-,N/A,,Clear,170,2013-07-05 14:15:00
9:35 AM,75.0,59.7,59,30.05,10.0,South,8.1,-,N/A,,Clear,180,2013-07-05 14:35:00
9:55 AM,75.7,58.6,55,30.04,10.0,SW,8.1,-,N/A,,Clear,230,2013-07-05 14:55:00
10:15 AM,76.8,59.0,54,30.04,10.0,SW,9.2,-,N/A,,Clear,220,2013-07-05 15:15:00
10:35 AM,77.9,58.5,51,30.03,10.0,SSW,10.4,-,N/A,,Clear,200,2013-07-05 15:35:00
10:55 AM,78.8,57.6,48,30.03,10.0,SSW,10.4,-,N/A,,Clear,200,2013-07-05 15:55:00
11:15 AM,78.4,56.1,46,30.03,10.0,SSW,10.4,-,N/A,,Clear,210,2013-07-05 16:15:00
11:35 AM,79.5,55.9,44,30.03,10.0,SSW,11.5,-,N/A,,Scattered Clouds,210,2013-07-05 16:35:00
11:55 AM,80.4,55.2,42,30.02,10.0,SW,15.0,18.4,N/A,,Clear,220,2013-07-05 16:55:00
12:15 PM,81.1,55.2,41,30.02,10.0,WSW,11.5,-,N/A,,Scattered Clouds,240,2013-07-05 17:15:00
12:35 PM,81.7,55.4,40,30.02,10.0,SW,10.4,17.3,N/A,,Scattered Clouds,230,2013-07-05 17:35:00
12:55 PM,80.2,53.8,40,30.01,10.0,SW,12.7,18.4,N/A,,Scattered Clouds,230,2013-07-05 17:55:00
1:15 PM,82.0,54.3,38,30.01,10.0,South,12.7,16.1,N/A,,Scattered Clouds,180,2013-07-05 18:15:00
1:35 PM,81.9,55.9,41,30.00,10.0,SSW,12.7,17.3,N/A,,Scattered Clouds,200,2013-07-05 18:35:00
2:14 PM,82.4,55.4,39,29.99,10.0,South,12.7,19.6,N/A,,Scattered Clouds,180,2013-07-05 19:14:00
2:15 PM,82.2,55.6,40,29.99,10.0,South,13.8,19.6,N/A,,Scattered Clouds,180,2013-07-05 19:15:00
2:35 PM,82.8,55.8,39,29.99,10.0,South,12.7,17.3,N/A,,Scattered Clouds,180,2013-07-05 19:35:00
2:55 PM,82.9,55.4,39,29.99,10.0,SSW,15.0,21.9,N/A,,Scattered Clouds,210,2013-07-05 19:55:00
3:15 PM,83.1,54.1,37,29.99,10.0,South,12.7,20.7,N/A,,Mostly Cloudy,190,2013-07-05 20:15:00
3:35 PM,83.3,53.2,35,29.98,10.0,South,12.7,19.6,N/A,,Mostly Cloudy,190,2013-07-05 20:35:00
3:55 PM,82.8,52.5,35,29.99,10.0,SSW,11.5,19.6,N/A,,Mostly Cloudy,210,2013-07-05 20:55:00
4:15 PM,83.5,52.7,34,29.98,10.0,SW,12.7,16.1,N/A,,Scattered Clouds,220,2013-07-05 21:15:00
4:35 PM,83.3,52.0,34,29.98,10.0,SW,13.8,-,N/A,,Scattered Clouds,220,2013-07-05 21:35:00
4:55 PM,82.6,53.8,37,29.98,10.0,SSW,11.5,18.4,N/A,,Scattered Clouds,210,2013-07-05 21:55:00
5:15 PM,82.8,55.0,38,29.97,10.0,South,12.7,20.7,N/A,,Scattered Clouds,190,2013-07-05 22:15:00
5:35 PM,82.4,54.5,38,29.97,10.0,SW,11.5,19.6,N/A,,Scattered Clouds,230,2013-07-05 22:35:00
5:55 PM,81.9,54.7,39,29.96,10.0,SSW,9.2,18.4,N/A,,Clear,210,2013-07-05 22:55:00
6:15 PM,81.7,55.4,40,29.96,10.0,SSW,13.8,17.3,N/A,,Clear,210,2013-07-05 23:15:00
6:35 PM,81.0,54.9,41,29.96,10.0,SSW,11.5,-,N/A,,Clear,200,2013-07-05 23:35:00
6:55 PM,80.6,55.8,42,29.97,10.0,SSW,11.5,-,N/A,,Clear,200,2013-07-05 23:55:00
7:15 PM,79.9,56.5,45,29.97,10.0,SSW,9.2,-,N/A,,Clear,200,2013-07-06 00:15:00
7:35 PM,78.6,57.2,48,29.97,10.0,SSW,10.4,-,N/A,,Clear,200,2013-07-06 00:35:00
7:55 PM,77.7,57.0,49,29.98,10.0,SSW,6.9,-,N/A,,Clear,200,2013-07-06 00:55:00
8:15 PM,76.1,57.6,53,29.98,10.0,South,5.8,-,N/A,,Clear,190,2013-07-06 01:15:00
8:35 PM,74.1,58.5,58,29.98,10.0,South,5.8,-,N/A,,Clear,180,2013-07-06 01:35:00
8:55 PM,73.2,58.5,60,29.98,10.0,South,6.9,-,N/A,,Clear,190,2013-07-06 01:55:00
9:15 PM,72.7,58.8,62,29.98,10.0,South,5.8,-,N/A,,Clear,190,2013-07-06 02:15:00
9:35 PM,71.6,59.0,64,29.98,10.0,South,4.6,-,N/A,,Clear,180,2013-07-06 02:35:00
9:55 PM,70.5,59.0,67,29.99,10.0,South,5.8,-,N/A,,Clear,170,2013-07-06 02:55:00
10:15 PM,70.2,59.2,68,29.99,10.0,South,5.8,-,N/A,,Clear,180,2013-07-06 03:15:00
10:35 PM,69.8,59.2,69,29.99,10.0,South,4.6,-,N/A,,Clear,170,2013-07-06 03:35:00
10:55 PM,68.7,59.0,71,29.99,10.0,South,5.8,-,N/A,,Clear,180,2013-07-06 03:55:00
11:15 PM,70.0,59.7,70,30.00,10.0,South,8.1,-,N/A,,Clear,180,2013-07-06 04:15:00
11:35 PM,69.6,59.9,71,30.00,10.0,South,6.9,-,N/A,,Clear,180,2013-07-06 04:35:00
11:55 PM,69.4,60.3,73,30.01,10.0,South,9.2,-,N/A,,Clear,180,2013-07-06 04:55:00